sensor_id;sensor_type;location;lat;lon;timestamp;pressure;altitude;pressure_sealevel;temperature;humidity
69153;BME280;56261;51.580;4.578;2023-03-14T00:00:13;99056.34;;;11.05;100.00
69153;BME280;56261;51.580;4.578;2023-03-14T00:02:39;99045.25;;;11.08;100.00
69153;BME280;56261;51.580;4.578;2023-03-14T00:05:06;99062.16;;;10.95;100.00
69153;BME280;56261;51.580;4.578;2023-03-14T00:07:39;99058.09;;;10.92;100.00
69153;BME280;56261;51.580;4.578;2023-03-14T00:10:12;99040.22;;;10.93;100.00
69153;BME280;56261;51.580;4.578;2023-03-14T00:12:39;99036.09;;;10.97;100.00
69153;BME280;56261;51.580;4.578;2023-03-14T00:15:05;99048.94;;;10.82;100.00
69153;BME280;56261;51.580;4.578;2023-03-14T00:17:32;99046.88;;;10.84;100.00
69153;BME280;56261;51.580;4.578;2023-03-14T00:19:58;99050.94;;;10.86;100.00
69153;BME280;56261;51.580;4.578;2023-03-14T00:22:30;99051.44;;;10.76;100.00
69153;BME280;56261;51.580;4.578;2023-03-14T00:24:56;99057.13;;;10.80;100.00
69153;BME280;56261;51.580;4.578;2023-03-14T00:27:22;99050.34;;;10.84;100.00
69153;BME280;56261;51.580;4.578;2023-03-14T00:29:47;99056.28;;;10.86;100.00
69153;BME280;56261;51.580;4.578;2023-03-14T00:32:13;99061.50;;;10.74;100.00
69153;BME280;56261;51.580;4.578;2023-03-14T00:34:38;99053.25;;;10.76;100.00
69153;BME280;56261;51.580;4.578;2023-03-14T00:37:03;99058.44;;;10.71;100.00
69153;BME280;56261;51.580;4.578;2023-03-14T00:39:29;99057.63;;;10.70;100.00
69153;BME280;56261;51.580;4.578;2023-03-14T00:41:54;99066.44;;;10.71;100.00
69153;BME280;56261;51.580;4.578;2023-03-14T00:44:20;99069.94;;;10.65;100.00
69153;BME280;56261;51.580;4.578;2023-03-14T00:46:45;99065.22;;;10.67;100.00
69153;BME280;56261;51.580;4.578;2023-03-14T00:49:10;99071.19;;;10.62;100.00
69153;BME280;56261;51.580;4.578;2023-03-14T00:51:36;99072.44;;;10.59;100.00
69153;BME280;56261;51.580;4.578;2023-03-14T00:54:01;99066.34;;;10.52;100.00
69153;BME280;56261;51.580;4.578;2023-03-14T00:56:26;99067.00;;;10.41;100.00
69153;BME280;56261;51.580;4.578;2023-03-14T00:58:55;99067.03;;;10.34;100.00
69153;BME280;56261;51.580;4.578;2023-03-14T01:01:21;99054.31;;;10.36;100.00
69153;BME280;56261;51.580;4.578;2023-03-14T01:03:49;99069.91;;;10.33;100.00
69153;BME280;56261;51.580;4.578;2023-03-14T01:06:18;99077.03;;;10.46;100.00
69153;BME280;56261;51.580;4.578;2023-03-14T01:08:44;99073.94;;;10.49;100.00
69153;BME280;56261;51.580;4.578;2023-03-14T01:11:19;99070.44;;;10.48;100.00
69153;BME280;56261;51.580;4.578;2023-03-14T01:13:45;99071.84;;;10.57;100.00
69153;BME280;56261;51.580;4.578;2023-03-14T01:16:12;99070.44;;;10.48;100.00
69153;BME280;56261;51.580;4.578;2023-03-14T01:18:40;99068.78;;;10.54;100.00
69153;BME280;56261;51.580;4.578;2023-03-14T01:21:12;99058.66;;;10.63;100.00
69153;BME280;56261;51.580;4.578;2023-03-14T01:23:38;99062.78;;;10.65;100.00
69153;BME280;56261;51.580;4.578;2023-03-14T01:26:03;99054.22;;;10.56;100.00
69153;BME280;56261;51.580;4.578;2023-03-14T01:28:29;99050.53;;;10.51;100.00
69153;BME280;56261;51.580;4.578;2023-03-14T01:30:54;99061.78;;;10.59;100.00
69153;BME280;56261;51.580;4.578;2023-03-14T01:33:19;99046.66;;;10.47;100.00
69153;BME280;56261;51.580;4.578;2023-03-14T01:35:45;99053.97;;;10.58;100.00
69153;BME280;56261;51.580;4.578;2023-03-14T01:38:11;99054.50;;;10.42;100.00
69153;BME280;56261;51.580;4.578;2023-03-14T01:40:44;99055.88;;;10.51;100.00
69153;BME280;56261;51.580;4.578;2023-03-14T01:43:18;99048.09;;;10.49;100.00
69153;BME280;56261;51.580;4.578;2023-03-14T01:48:54;99044.28;;;10.38;100.00
69153;BME280;56261;51.580;4.578;2023-03-14T01:51:25;99045.28;;;10.37;100.00
69153;BME280;56261;51.580;4.578;2023-03-14T01:53:55;99043.88;;;10.28;100.00
69153;BME280;56261;51.580;4.578;2023-03-14T01:56:24;99035.88;;;10.28;100.00
69153;BME280;56261;51.580;4.578;2023-03-14T01:58:51;99030.97;;;10.32;100.00
69153;BME280;56261;51.580;4.578;2023-03-14T02:01:20;99033.03;;;10.23;100.00
69153;BME280;56261;51.580;4.578;2023-03-14T02:03:54;99040.22;;;10.29;100.00
69153;BME280;56261;51.580;4.578;2023-03-14T02:06:29;99036.72;;;10.29;100.00
69153;BME280;56261;51.580;4.578;2023-03-14T02:08:59;99022.75;;;10.33;100.00
69153;BME280;56261;51.580;4.578;2023-03-14T02:11:28;99020.09;;;10.33;100.00
69153;BME280;56261;51.580;4.578;2023-03-14T02:13:54;99024.41;;;10.28;100.00
69153;BME280;56261;51.580;4.578;2023-03-14T02:16:20;99015.03;;;10.18;100.00
69153;BME280;56261;51.580;4.578;2023-03-14T02:18:46;99008.25;;;10.29;100.00
69153;BME280;56261;51.580;4.578;2023-03-14T02:24:27;99008.47;;;10.14;100.00
69153;BME280;56261;51.580;4.578;2023-03-14T02:27:09;99004.53;;;10.30;100.00
69153;BME280;56261;51.580;4.578;2023-03-14T02:29:39;99011.13;;;10.14;100.00
69153;BME280;56261;51.580;4.578;2023-03-14T02:32:07;99009.25;;;10.22;100.00
69153;BME280;56261;51.580;4.578;2023-03-14T02:34:33;99007.63;;;10.21;100.00
69153;BME280;56261;51.580;4.578;2023-03-14T02:37:00;98998.81;;;10.20;100.00
69153;BME280;56261;51.580;4.578;2023-03-14T02:39:36;99008.66;;;10.19;100.00
69153;BME280;56261;51.580;4.578;2023-03-14T02:42:02;99016.00;;;10.24;100.00
69153;BME280;56261;51.580;4.578;2023-03-14T02:44:27;99000.28;;;10.16;100.00
69153;BME280;56261;51.580;4.578;2023-03-14T02:46:53;99006.38;;;10.30;100.00
69153;BME280;56261;51.580;4.578;2023-03-14T02:49:18;98998.16;;;10.31;100.00
69153;BME280;56261;51.580;4.578;2023-03-14T02:51:45;99002.72;;;10.17;100.00
69153;BME280;56261;51.580;4.578;2023-03-14T02:54:12;98991.81;;;10.26;100.00
69153;BME280;56261;51.580;4.578;2023-03-14T02:56:38;98994.53;;;10.19;100.00
69153;BME280;56261;51.580;4.578;2023-03-14T02:59:04;98991.25;;;10.17;100.00
69153;BME280;56261;51.580;4.578;2023-03-14T03:01:30;98984.44;;;10.28;100.00
69153;BME280;56261;51.580;4.578;2023-03-14T03:03:55;98995.28;;;10.26;100.00
69153;BME280;56261;51.580;4.578;2023-03-14T03:06:21;98990.41;;;10.23;100.00
69153;BME280;56261;51.580;4.578;2023-03-14T03:08:46;98985.06;;;10.30;100.00
69153;BME280;56261;51.580;4.578;2023-03-14T03:11:12;98989.81;;;10.14;100.00
69153;BME280;56261;51.580;4.578;2023-03-14T03:13:37;98990.44;;;10.16;100.00
69153;BME280;56261;51.580;4.578;2023-03-14T03:16:03;98996.16;;;10.13;100.00
69153;BME280;56261;51.580;4.578;2023-03-14T03:18:28;98984.25;;;10.23;100.00
69153;BME280;56261;51.580;4.578;2023-03-14T03:20:54;98978.28;;;10.27;100.00
69153;BME280;56261;51.580;4.578;2023-03-14T03:23:19;98985.47;;;10.20;100.00
69153;BME280;56261;51.580;4.578;2023-03-14T03:25:48;98987.94;;;10.22;100.00
69153;BME280;56261;51.580;4.578;2023-03-14T03:28:14;98982.50;;;10.03;100.00
69153;BME280;56261;51.580;4.578;2023-03-14T03:30:41;98983.91;;;10.12;100.00
69153;BME280;56261;51.580;4.578;2023-03-14T03:33:07;98973.81;;;10.21;100.00
69153;BME280;56261;51.580;4.578;2023-03-14T03:35:32;98980.38;;;10.18;100.00
69153;BME280;56261;51.580;4.578;2023-03-14T03:37:58;98984.94;;;10.11;100.00
69153;BME280;56261;51.580;4.578;2023-03-14T03:40:23;98987.59;;;10.11;100.00
69153;BME280;56261;51.580;4.578;2023-03-14T03:42:49;98977.88;;;10.24;100.00
69153;BME280;56261;51.580;4.578;2023-03-14T03:45:14;98974.63;;;10.22;100.00
69153;BME280;56261;51.580;4.578;2023-03-14T03:47:40;98980.78;;;10.15;100.00
69153;BME280;56261;51.580;4.578;2023-03-14T03:50:05;98974.84;;;10.13;100.00
69153;BME280;56261;51.580;4.578;2023-03-14T03:52:31;98968.97;;;10.11;100.00
69153;BME280;56261;51.580;4.578;2023-03-14T03:54:56;98980.38;;;10.18;100.00
69153;BME280;56261;51.580;4.578;2023-03-14T03:57:22;98983.25;;;10.17;100.00
69153;BME280;56261;51.580;4.578;2023-03-14T03:59:47;98972.56;;;10.24;100.00
69153;BME280;56261;51.580;4.578;2023-03-14T04:02:13;98989.66;;;10.09;100.00
69153;BME280;56261;51.580;4.578;2023-03-14T04:04:38;98983.25;;;10.17;100.00
69153;BME280;56261;51.580;4.578;2023-03-14T04:07:04;98993.28;;;10.22;100.00
69153;BME280;56261;51.580;4.578;2023-03-14T04:09:30;98985.31;;;10.15;100.00
69153;BME280;56261;51.580;4.578;2023-03-14T04:11:55;98982.81;;;10.20;100.00
69153;BME280;56261;51.580;4.578;2023-03-14T04:14:21;98984.72;;;10.13;100.00
69153;BME280;56261;51.580;4.578;2023-03-14T04:16:47;98974.19;;;10.25;100.00
69153;BME280;56261;51.580;4.578;2023-03-14T04:19:12;98976.84;;;10.25;100.00
69153;BME280;56261;51.580;4.578;2023-03-14T04:21:37;98980.38;;;10.18;100.00
69153;BME280;56261;51.580;4.578;2023-03-14T04:24:06;98988.75;;;10.22;100.00
69153;BME280;56261;51.580;4.578;2023-03-14T04:26:31;98986.50;;;10.26;100.00
69153;BME280;56261;51.580;4.578;2023-03-14T04:28:56;98982.63;;;10.22;100.00
69153;BME280;56261;51.580;4.578;2023-03-14T04:31:22;98986.13;;;10.15;100.00
69153;BME280;56261;51.580;4.578;2023-03-14T04:33:48;98983.50;;;10.09;100.00
69153;BME280;56261;51.580;4.578;2023-03-14T04:36:14;98976.47;;;10.21;100.00
69153;BME280;56261;51.580;4.578;2023-03-14T04:38:39;98979.78;;;10.16;100.00
69153;BME280;56261;51.580;4.578;2023-03-14T04:41:05;98979.38;;;10.13;100.00
69153;BME280;56261;51.580;4.578;2023-03-14T04:43:30;98979.22;;;10.08;100.00
69153;BME280;56261;51.580;4.578;2023-03-14T04:45:57;98974.31;;;10.05;100.00
69153;BME280;56261;51.580;4.578;2023-03-14T04:48:24;98979.25;;;10.01;100.00
69153;BME280;56261;51.580;4.578;2023-03-14T04:50:50;98962.16;;;10.15;100.00
69153;BME280;56261;51.580;4.578;2023-03-14T04:53:17;98953.66;;;9.93;100.00
69153;BME280;56261;51.580;4.578;2023-03-14T04:55:47;98963.06;;;10.03;100.00
69153;BME280;56261;51.580;4.578;2023-03-14T04:58:13;98962.84;;;9.97;100.00
69153;BME280;56261;51.580;4.578;2023-03-14T05:00:38;98955.03;;;10.09;100.00
69153;BME280;56261;51.580;4.578;2023-03-14T05:03:03;98948.94;;;9.95;100.00
69153;BME280;56261;51.580;4.578;2023-03-14T05:05:29;98956.09;;;10.02;100.00
69153;BME280;56261;51.580;4.578;2023-03-14T05:07:54;98945.25;;;9.96;100.00
69153;BME280;56261;51.580;4.578;2023-03-14T05:10:19;98945.50;;;9.88;100.00
69153;BME280;56261;51.580;4.578;2023-03-14T05:12:45;98951.22;;;9.92;100.00
69153;BME280;56261;51.580;4.578;2023-03-14T05:15:10;98947.50;;;9.93;100.00
69153;BME280;56261;51.580;4.578;2023-03-14T05:17:35;98959.19;;;9.98;100.00
69153;BME280;56261;51.580;4.578;2023-03-14T05:20:01;98954.91;;;9.91;100.00
69153;BME280;56261;51.580;4.578;2023-03-14T05:22:32;98961.81;;;10.05;100.00
69153;BME280;56261;51.580;4.578;2023-03-14T05:24:58;98950.97;;;10.00;100.00
69153;BME280;56261;51.580;4.578;2023-03-14T05:27:24;98958.56;;;9.96;100.00
69153;BME280;56261;51.580;4.578;2023-03-14T05:29:49;98977.00;;;9.98;100.00
69153;BME280;56261;51.580;4.578;2023-03-14T05:32:15;98961.25;;;9.90;100.00
69153;BME280;56261;51.580;4.578;2023-03-14T05:34:40;98971.34;;;9.81;100.00
69153;BME280;56261;51.580;4.578;2023-03-14T05:37:05;98934.97;;;9.55;100.00
69153;BME280;56261;51.580;4.578;2023-03-14T05:39:32;98967.09;;;9.67;100.00
69153;BME280;56261;51.580;4.578;2023-03-14T05:41:57;98977.94;;;9.65;100.00
69153;BME280;56261;51.580;4.578;2023-03-14T05:44:23;98963.44;;;9.54;100.00
69153;BME280;56261;51.580;4.578;2023-03-14T05:46:48;98967.69;;;9.62;100.00
69153;BME280;56261;51.580;4.578;2023-03-14T05:49:13;98954.47;;;9.49;100.00
69153;BME280;56261;51.580;4.578;2023-03-14T05:51:39;98964.69;;;9.52;100.00
69153;BME280;56261;51.580;4.578;2023-03-14T05:54:04;98960.78;;;9.48;100.00
69153;BME280;56261;51.580;4.578;2023-03-14T05:56:30;98964.06;;;9.50;100.00
69153;BME280;56261;51.580;4.578;2023-03-14T05:58:55;98962.03;;;9.45;100.00
69153;BME280;56261;51.580;4.578;2023-03-14T06:01:21;98963.28;;;9.43;100.00
69153;BME280;56261;51.580;4.578;2023-03-14T06:03:46;98958.75;;;9.43;100.00
69153;BME280;56261;51.580;4.578;2023-03-14T06:06:11;98961.41;;;9.43;100.00
69153;BME280;56261;51.580;4.578;2023-03-14T06:08:37;98958.75;;;9.43;100.00
69153;BME280;56261;51.580;4.578;2023-03-14T06:11:03;98976.78;;;9.41;100.00
69153;BME280;56261;51.580;4.578;2023-03-14T06:13:28;98968.34;;;9.51;100.00
69153;BME280;56261;51.580;4.578;2023-03-14T06:15:54;98954.88;;;9.39;100.00
69153;BME280;56261;51.580;4.578;2023-03-14T06:18:19;98969.22;;;9.45;100.00
69153;BME280;56261;51.580;4.578;2023-03-14T06:20:45;99027.53;;;9.40;100.00
69153;BME280;56261;51.580;4.578;2023-03-14T06:23:10;99052.06;;;8.62;100.00
69153;BME280;56261;51.580;4.578;2023-03-14T06:25:36;99055.75;;;7.71;100.00
69153;BME280;56261;51.580;4.578;2023-03-14T06:28:01;99053.13;;;7.43;100.00
69153;BME280;56261;51.580;4.578;2023-03-14T06:30:27;99070.88;;;7.42;100.00
69153;BME280;56261;51.580;4.578;2023-03-14T06:32:52;99093.19;;;7.26;100.00
69153;BME280;56261;51.580;4.578;2023-03-14T06:35:18;99099.13;;;7.28;100.00
69153;BME280;56261;51.580;4.578;2023-03-14T06:37:44;99124.13;;;7.19;100.00
69153;BME280;56261;51.580;4.578;2023-03-14T06:40:11;99111.63;;;7.13;100.00
69153;BME280;56261;51.580;4.578;2023-03-14T06:42:39;99136.13;;;7.15;100.00
69153;BME280;56261;51.580;4.578;2023-03-14T06:45:04;99125.84;;;7.05;100.00
69153;BME280;56261;51.580;4.578;2023-03-14T06:47:30;99141.38;;;7.09;100.00
69153;BME280;56261;51.580;4.578;2023-03-14T06:49:55;99146.66;;;7.09;100.00
69153;BME280;56261;51.580;4.578;2023-03-14T06:52:21;99144.75;;;7.02;100.00
69153;BME280;56261;51.580;4.578;2023-03-14T06:54:46;99166.44;;;7.06;100.00
69153;BME280;56261;51.580;4.578;2023-03-14T06:57:11;99180.25;;;7.01;100.00
69153;BME280;56261;51.580;4.578;2023-03-14T06:59:37;99190.38;;;6.98;100.00
69153;BME280;56261;51.580;4.578;2023-03-14T07:02:02;99206.22;;;6.91;100.00
69153;BME280;56261;51.580;4.578;2023-03-14T07:04:28;99209.53;;;6.78;100.00
69153;BME280;56261;51.580;4.578;2023-03-14T07:06:53;99217.47;;;6.78;100.00
69153;BME280;56261;51.580;4.578;2023-03-14T07:09:19;99238.09;;;6.83;100.00
69153;BME280;56261;51.580;4.578;2023-03-14T07:11:44;99233.50;;;6.70;100.00
69153;BME280;56261;51.580;4.578;2023-03-14T07:14:10;99240.50;;;6.78;100.00
69153;BME280;56261;51.580;4.578;2023-03-14T07:16:35;99253.31;;;6.74;100.00
69153;BME280;56261;51.580;4.578;2023-03-14T07:19:02;99259.59;;;6.73;100.00
69153;BME280;56261;51.580;4.578;2023-03-14T07:21:28;99276.31;;;6.74;100.00
69153;BME280;56261;51.580;4.578;2023-03-14T07:23:53;99279.91;;;6.66;100.00
69153;BME280;56261;51.580;4.578;2023-03-14T07:26:19;99289.03;;;6.63;100.00
69153;BME280;56261;51.580;4.578;2023-03-14T07:28:44;99309.38;;;6.63;100.00
69153;BME280;56261;51.580;4.578;2023-03-14T07:31:10;99302.38;;;6.70;100.00
69153;BME280;56261;51.580;4.578;2023-03-14T07:33:35;99310.13;;;6.72;100.00
69153;BME280;56261;51.580;4.578;2023-03-14T07:36:01;99304.84;;;6.57;100.00
69153;BME280;56261;51.580;4.578;2023-03-14T07:38:26;99327.31;;;6.61;100.00
69153;BME280;56261;51.580;4.578;2023-03-14T07:41:00;99335.44;;;6.59;100.00
69153;BME280;56261;51.580;4.578;2023-03-14T07:43:26;99336.16;;;6.53;100.00
69153;BME280;56261;51.580;4.578;2023-03-14T07:45:51;99356.78;;;6.58;100.00
69153;BME280;56261;51.580;4.578;2023-03-14T07:48:17;99357.91;;;6.63;100.00
69153;BME280;56261;51.580;4.578;2023-03-14T07:50:42;99361.00;;;6.67;100.00
69153;BME280;56261;51.580;4.578;2023-03-14T07:53:08;99370.63;;;6.68;100.00
69153;BME280;56261;51.580;4.578;2023-03-14T07:55:33;99384.59;;;6.77;100.00
69153;BME280;56261;51.580;4.578;2023-03-14T07:57:58;99390.03;;;6.60;100.00
69153;BME280;56261;51.580;4.578;2023-03-14T08:00:24;99401.69;;;6.74;100.00
69153;BME280;56261;51.580;4.578;2023-03-14T08:02:49;99406.88;;;6.68;100.00
69153;BME280;56261;51.580;4.578;2023-03-14T08:05:15;99410.41;;;6.60;100.00
69153;BME280;56261;51.580;4.578;2023-03-14T08:07:40;99419.75;;;6.71;100.00
69153;BME280;56261;51.580;4.578;2023-03-14T08:10:06;99434.94;;;6.77;100.00
69153;BME280;56261;51.580;4.578;2023-03-14T08:12:32;99438.25;;;6.79;100.00
69153;BME280;56261;51.580;4.578;2023-03-14T08:14:58;99452.03;;;6.74;100.00
69153;BME280;56261;51.580;4.578;2023-03-14T08:17:24;99450.53;;;6.72;100.00
69153;BME280;56261;51.580;4.578;2023-03-14T08:19:50;99465.91;;;6.76;100.00
69153;BME280;56261;51.580;4.578;2023-03-14T08:22:15;99469.13;;;6.86;100.00
69153;BME280;56261;51.580;4.578;2023-03-14T08:24:40;99473.72;;;6.93;100.00
69153;BME280;56261;51.580;4.578;2023-03-14T08:27:06;99475.47;;;7.00;100.00
69153;BME280;56261;51.580;4.578;2023-03-14T08:29:31;99477.47;;;6.98;100.00
69153;BME280;56261;51.580;4.578;2023-03-14T08:31:57;99488.53;;;7.02;100.00
69153;BME280;56261;51.580;4.578;2023-03-14T08:34:22;99486.06;;;7.00;100.00
69153;BME280;56261;51.580;4.578;2023-03-14T08:36:48;99499.50;;;6.99;100.00
69153;BME280;56261;51.580;4.578;2023-03-14T08:39:13;99516.47;;;6.90;100.00
69153;BME280;56261;51.580;4.578;2023-03-14T08:41:38;99520.13;;;6.89;100.00
69153;BME280;56261;51.580;4.578;2023-03-14T08:44:09;99535.66;;;6.92;100.00
69153;BME280;56261;51.580;4.578;2023-03-14T08:46:36;99540.63;;;6.95;100.00
69153;BME280;56261;51.580;4.578;2023-03-14T08:49:02;99554.31;;;7.36;100.00
69153;BME280;56261;51.580;4.578;2023-03-14T08:51:28;99567.16;;;7.10;100.00
69153;BME280;56261;51.580;4.578;2023-03-14T08:53:54;99581.97;;;7.04;100.00
69153;BME280;56261;51.580;4.578;2023-03-14T08:56:19;99601.28;;;6.90;100.00
69153;BME280;56261;51.580;4.578;2023-03-14T08:58:44;99606.56;;;6.90;100.00
69153;BME280;56261;51.580;4.578;2023-03-14T09:01:10;99610.81;;;7.22;100.00
69153;BME280;56261;51.580;4.578;2023-03-14T09:03:36;99616.25;;;7.05;100.00
69153;BME280;56261;51.580;4.578;2023-03-14T09:06:04;99639.00;;;7.00;100.00
69153;BME280;56261;51.580;4.578;2023-03-14T09:08:30;99661.13;;;6.53;100.00
69153;BME280;56261;51.580;4.578;2023-03-14T09:10:56;99677.72;;;6.38;100.00
69153;BME280;56261;51.580;4.578;2023-03-14T09:13:21;99681.53;;;6.44;100.00
69153;BME280;56261;51.580;4.578;2023-03-14T09:15:54;99697.81;;;6.64;100.00
69153;BME280;56261;51.580;4.578;2023-03-14T09:18:20;99704.16;;;6.55;100.00
69153;BME280;56261;51.580;4.578;2023-03-14T09:20:46;99712.72;;;6.65;100.00
69153;BME280;56261;51.580;4.578;2023-03-14T09:23:11;99730.81;;;6.53;100.00
69153;BME280;56261;51.580;4.578;2023-03-14T09:25:37;99737.34;;;6.74;100.00
69153;BME280;56261;51.580;4.578;2023-03-14T09:28:02;99735.59;;;6.58;100.00
69153;BME280;56261;51.580;4.578;2023-03-14T09:30:28;99745.16;;;6.67;100.00
69153;BME280;56261;51.580;4.578;2023-03-14T09:32:53;99758.91;;;6.71;100.00
69153;BME280;56261;51.580;4.578;2023-03-14T09:35:19;99774.38;;;6.51;100.00
69153;BME280;56261;51.580;4.578;2023-03-14T09:37:44;99770.84;;;6.58;100.00
69153;BME280;56261;51.580;4.578;2023-03-14T09:40:15;99799.22;;;6.33;100.00
69153;BME280;56261;51.580;4.578;2023-03-14T09:42:40;99805.13;;;6.52;100.00
69153;BME280;56261;51.580;4.578;2023-03-14T09:45:12;99816.47;;;6.21;100.00
69153;BME280;56261;51.580;4.578;2023-03-14T09:47:39;99826.22;;;6.37;100.00
69153;BME280;56261;51.580;4.578;2023-03-14T09:50:12;99824.88;;;6.41;100.00
69153;BME280;56261;51.580;4.578;2023-03-14T09:52:39;99847.00;;;6.56;100.00
69153;BME280;56261;51.580;4.578;2023-03-14T09:55:19;99859.44;;;6.56;100.00
69153;BME280;56261;51.580;4.578;2023-03-14T09:57:47;99865.25;;;6.59;100.00
69153;BME280;56261;51.580;4.578;2023-03-14T10:00:26;99876.00;;;6.74;100.00
69153;BME280;56261;51.580;4.578;2023-03-14T10:02:53;99876.63;;;6.84;100.00
69153;BME280;56261;51.580;4.578;2023-03-14T10:05:22;99872.09;;;7.01;100.00
69153;BME280;56261;51.580;4.578;2023-03-14T10:07:47;99880.28;;;7.23;100.00
69153;BME280;56261;51.580;4.578;2023-03-14T10:10:21;99886.69;;;7.45;100.00
69153;BME280;56261;51.580;4.578;2023-03-14T10:12:53;99898.47;;;7.74;100.00
69153;BME280;56261;51.580;4.578;2023-03-14T10:15:25;99914.75;;;7.71;100.00
69153;BME280;56261;51.580;4.578;2023-03-14T10:17:51;99935.50;;;7.67;100.00
69153;BME280;56261;51.580;4.578;2023-03-14T10:20:28;99934.53;;;7.12;100.00
69153;BME280;56261;51.580;4.578;2023-03-14T10:22:58;99939.91;;;7.43;100.00
69153;BME280;56261;51.580;4.578;2023-03-14T10:25:29;99936.50;;;7.66;100.00
69153;BME280;56261;51.580;4.578;2023-03-14T10:27:55;99954.16;;;7.42;100.00
69153;BME280;56261;51.580;4.578;2023-03-14T10:33:23;99982.06;;;7.30;100.00
69153;BME280;56261;51.580;4.578;2023-03-14T10:36:05;100017.06;;;6.76;100.00
69153;BME280;56261;51.580;4.578;2023-03-14T10:38:34;100039.28;;;6.00;100.00
69153;BME280;56261;51.580;4.578;2023-03-14T10:41:01;100054.00;;;5.94;100.00
69153;BME280;56261;51.580;4.578;2023-03-14T10:43:35;100060.22;;;5.93;100.00
69153;BME280;56261;51.580;4.578;2023-03-14T10:46:17;100073.69;;;6.00;100.00
69153;BME280;56261;51.580;4.578;2023-03-14T10:48:44;100074.56;;;6.09;100.00
69153;BME280;56261;51.580;4.578;2023-03-14T10:54:29;100089.66;;;6.16;100.00
69153;BME280;56261;51.580;4.578;2023-03-14T10:56:35;100095.81;;;6.33;100.00
69153;BME280;56261;51.580;4.578;2023-03-14T10:59:02;100112.97;;;6.72;100.00
69153;BME280;56261;51.580;4.578;2023-03-14T11:01:37;100116.63;;;6.71;100.00
69153;BME280;56261;51.580;4.578;2023-03-14T11:04:36;100130.44;;;6.99;100.00
69153;BME280;56261;51.580;4.578;2023-03-14T11:21:05;100175.84;;;6.53;100.00
69153;BME280;56261;51.580;4.578;2023-03-14T11:26:30;100203.78;;;6.13;100.00
69153;BME280;56261;51.580;4.578;2023-03-14T11:29:02;100219.13;;;5.83;100.00
69153;BME280;56261;51.580;4.578;2023-03-14T11:31:33;100218.81;;;5.87;100.00
69153;BME280;56261;51.580;4.578;2023-03-14T11:34:24;100235.84;;;5.84;100.00
69153;BME280;56261;51.580;4.578;2023-03-14T11:37:05;100225.78;;;6.06;100.00
69153;BME280;56261;51.580;4.578;2023-03-14T11:39:45;100234.81;;;6.21;100.00
69153;BME280;56261;51.580;4.578;2023-03-14T11:42:16;100231.53;;;6.61;100.00
69153;BME280;56261;51.580;4.578;2023-03-14T11:44:46;100235.84;;;7.13;100.00
69153;BME280;56261;51.580;4.578;2023-03-14T11:47:33;100234.06;;;7.30;100.00
69153;BME280;56261;51.580;4.578;2023-03-14T11:50:27;100237.88;;;7.44;100.00
69153;BME280;56261;51.580;4.578;2023-03-14T11:52:56;100241.69;;;7.41;100.00
69153;BME280;56261;51.580;4.578;2023-03-14T11:55:37;100258.94;;;7.54;100.00
69153;BME280;56261;51.580;4.578;2023-03-14T11:58:19;100279.16;;;7.38;100.00
69153;BME280;56261;51.580;4.578;2023-03-14T12:00:47;100273.84;;;7.30;100.00
69153;BME280;56261;51.580;4.578;2023-03-14T12:09:03;100311.22;;;7.69;100.00
69153;BME280;56261;51.580;4.578;2023-03-14T12:11:50;100297.28;;;7.92;100.00
69153;BME280;56261;51.580;4.578;2023-03-14T12:16:50;100302.28;;;8.44;100.00
69153;BME280;56261;51.580;4.578;2023-03-14T12:21:59;100309.72;;;8.32;100.00
69153;BME280;56261;51.580;4.578;2023-03-14T12:24:29;100309.56;;;8.42;100.00
69153;BME280;56261;51.580;4.578;2023-03-14T12:27:00;100322.16;;;8.57;100.00
69153;BME280;56261;51.580;4.578;2023-03-14T12:29:26;100321.41;;;8.87;100.00
69153;BME280;56261;51.580;4.578;2023-03-14T12:42:07;100358.56;;;8.40;100.00
69153;BME280;56261;51.580;4.578;2023-03-14T12:44:46;100360.72;;;8.44;100.00
69153;BME280;56261;51.580;4.578;2023-03-14T12:49:44;100372.34;;;8.35;100.00
69153;BME280;56261;51.580;4.578;2023-03-14T12:55:18;100385.59;;;8.19;100.00
69153;BME280;56261;51.580;4.578;2023-03-14T13:00:18;100403.03;;;8.21;100.00
69153;BME280;56261;51.580;4.578;2023-03-14T13:02:46;100406.16;;;8.00;100.00
69153;BME280;56261;51.580;4.578;2023-03-14T13:05:21;100404.56;;;8.24;100.00
69153;BME280;56261;51.580;4.578;2023-03-14T13:10:25;100418.81;;;8.31;100.00
69153;BME280;56261;51.580;4.578;2023-03-14T13:15:34;100430.06;;;8.00;100.00
69153;BME280;56261;51.580;4.578;2023-03-14T13:18:17;100442.41;;;8.34;100.00
69153;BME280;56261;51.580;4.578;2023-03-14T13:20:59;100452.69;;;8.37;100.00
69153;BME280;56261;51.580;4.578;2023-03-14T13:23:31;100455.19;;;8.39;100.00
69153;BME280;56261;51.580;4.578;2023-03-14T13:25:57;100459.66;;;8.14;100.00
69153;BME280;56261;51.580;4.578;2023-03-14T13:28:25;100466.88;;;7.87;100.00
69153;BME280;56261;51.580;4.578;2023-03-14T13:30:56;100485.47;;;7.87;100.00
69153;BME280;56261;51.580;4.578;2023-03-14T13:33:23;100497.25;;;7.84;100.00
69153;BME280;56261;51.580;4.578;2023-03-14T13:36:02;100495.47;;;7.59;100.00
69153;BME280;56261;51.580;4.578;2023-03-14T13:38:30;100505.09;;;7.60;100.00
69153;BME280;56261;51.580;4.578;2023-03-14T13:40:59;100501.97;;;7.64;100.00
69153;BME280;56261;51.580;4.578;2023-03-14T13:43:31;100514.91;;;7.67;100.00
69153;BME280;56261;51.580;4.578;2023-03-14T13:48:32;100528.44;;;7.48;100.00
69153;BME280;56261;51.580;4.578;2023-03-14T13:51:04;100533.09;;;7.54;100.00
69153;BME280;56261;51.580;4.578;2023-03-14T13:53:34;100548.59;;;7.41;100.00
69153;BME280;56261;51.580;4.578;2023-03-14T13:56:09;100558.13;;;7.52;100.00
69153;BME280;56261;51.580;4.578;2023-03-14T13:58:36;100561.50;;;7.36;100.00
69153;BME280;56261;51.580;4.578;2023-03-14T14:03:32;100577.00;;;7.22;100.00
69153;BME280;56261;51.580;4.578;2023-03-14T14:05:58;100597.91;;;7.25;100.00